createdAt,value
2018-07-22T00:01:09.313Z,7.70
2018-07-22T00:03:37.431Z,7.17
2018-07-22T00:06:05.840Z,7.17
2018-07-22T00:08:34.230Z,6.00
2018-07-22T00:11:02.655Z,5.90
2018-07-22T00:13:31.079Z,9.27
2018-07-22T00:15:59.511Z,7.60
2018-07-22T00:18:28.025Z,7.70
2018-07-22T00:20:56.395Z,7.47
2018-07-22T00:23:24.913Z,7.53
2018-07-22T00:25:53.321Z,7.33
2018-07-22T00:28:21.747Z,7.70
2018-07-22T00:30:50.296Z,7.63
2018-07-22T00:33:18.818Z,8.63
2018-07-22T00:35:47.264Z,7.40
2018-07-22T00:38:15.681Z,8.37
2018-07-22T00:40:44.097Z,8.77
2018-07-22T00:43:12.487Z,7.97
2018-07-22T00:45:41.042Z,9.07
2018-07-22T00:48:09.431Z,8.33
2018-07-22T00:50:37.906Z,9.80
2018-07-22T00:53:07.160Z,7.50
2018-07-22T00:55:35.672Z,7.17
2018-07-22T00:58:04.082Z,7.60
2018-07-22T01:00:32.548Z,10.43
2018-07-22T01:03:00.989Z,7.10
2018-07-22T01:05:30.256Z,7.40
2018-07-22T01:07:58.341Z,10.13
2018-07-22T01:10:26.521Z,7.90
2018-07-22T01:12:55.038Z,7.87
2018-07-22T01:15:23.573Z,11.07
2018-07-22T01:17:51.950Z,7.20
2018-07-22T01:20:20.380Z,7.53
2018-07-22T01:22:48.811Z,7.03
2018-07-22T01:25:17.275Z,8.47
2018-07-22T01:27:45.702Z,8.43
2018-07-22T01:30:14.417Z,7.10
2018-07-22T01:32:42.862Z,7.90
2018-07-22T01:35:11.302Z,8.47
2018-07-22T01:37:39.787Z,7.17
2018-07-22T01:40:08.238Z,6.83
2018-07-22T01:42:36.661Z,8.03
2018-07-22T01:45:05.127Z,8.40
2018-07-22T01:47:33.640Z,9.10
2018-07-22T01:50:02.028Z,9.27
2018-07-22T01:52:31.019Z,8.03
2018-07-22T01:54:59.100Z,8.03
2018-07-22T01:57:27.399Z,8.73
2018-07-22T01:59:55.860Z,7.70
2018-07-22T02:02:24.309Z,6.10
2018-07-22T02:04:52.749Z,5.67
2018-07-22T02:07:21.169Z,6.77
2018-07-22T02:09:49.574Z,6.20
2018-07-22T02:12:18.069Z,6.13
2018-07-22T02:14:46.454Z,6.33
2018-07-22T02:17:14.544Z,8.27
2018-07-22T02:19:42.990Z,6.23
2018-07-22T02:22:11.464Z,8.23
2018-07-22T02:24:39.936Z,8.47
2018-07-22T02:27:08.339Z,6.57
2018-07-22T02:29:36.813Z,7.27
2018-07-22T02:32:05.210Z,7.00
2018-07-22T02:34:33.650Z,7.10
2018-07-22T02:37:02.066Z,6.27
2018-07-22T02:39:30.545Z,7.23
2018-07-22T02:41:58.929Z,6.53
2018-07-22T02:44:27.044Z,6.40
2018-07-22T02:46:55.521Z,6.33
2018-07-22T02:49:23.895Z,7.70
2018-07-22T02:51:52.458Z,7.00
2018-07-22T02:54:20.561Z,11.23
2018-07-22T02:56:48.962Z,6.53
2018-07-22T02:59:17.324Z,6.60
2018-07-22T03:01:45.727Z,6.53
2018-07-22T03:04:14.125Z,6.43
2018-07-22T03:06:42.541Z,6.83
2018-07-22T03:09:11.000Z,6.40
2018-07-22T03:11:39.474Z,6.70
2018-07-22T03:14:07.903Z,6.90
2018-07-22T03:16:36.337Z,6.30
2018-07-22T03:19:04.755Z,6.43
2018-07-22T03:21:33.422Z,6.77
2018-07-22T03:24:01.866Z,7.73
2018-07-22T03:26:30.290Z,6.73
2018-07-22T03:28:58.765Z,6.67
2018-07-22T03:31:27.225Z,6.70
2018-07-22T03:33:55.676Z,6.90
2018-07-22T03:36:24.081Z,7.13
2018-07-22T03:38:52.537Z,6.43
2018-07-22T03:41:20.973Z,6.97
2018-07-22T03:43:49.114Z,6.73
2018-07-22T03:46:17.554Z,6.60
2018-07-22T03:48:46.142Z,8.07
2018-07-22T03:51:14.905Z,7.12
2018-07-22T03:53:43.260Z,9.53
2018-07-22T03:56:11.708Z,6.60
2018-07-22T03:58:40.144Z,6.87
2018-07-22T04:01:08.546Z,7.33
2018-07-22T04:03:36.907Z,10.63
2018-07-22T04:06:06.319Z,7.17
2018-07-22T04:08:34.705Z,8.23
2018-07-22T04:11:03.149Z,7.80
2018-07-22T04:13:31.545Z,9.07
2018-07-22T04:15:59.979Z,7.17
2018-07-22T04:18:28.488Z,6.83
2018-07-22T04:20:56.862Z,3.63
2018-07-22T04:23:25.283Z,4.90
2018-07-22T04:25:53.420Z,7.73
2018-07-22T04:28:23.155Z,8.37
2018-07-22T04:30:51.858Z,11.33
2018-07-22T04:33:20.855Z,8.40
2018-07-22T04:35:49.425Z,8.97
2018-07-22T04:38:18.125Z,9.07
2018-07-22T04:40:46.658Z,7.57
2018-07-22T04:43:15.126Z,7.80
2018-07-22T04:45:43.517Z,8.80
2018-07-22T04:48:12.106Z,10.30
2018-07-22T04:50:40.730Z,9.20
2018-07-22T04:53:09.147Z,8.90
2018-07-22T04:55:37.558Z,11.93
2018-07-22T04:58:06.048Z,13.87
2018-07-22T05:00:34.441Z,9.47
2018-07-22T05:03:03.066Z,12.13
2018-07-22T05:05:31.240Z,11.57
2018-07-22T05:07:59.798Z,13.30
2018-07-22T05:10:29.036Z,11.73
2018-07-22T05:12:57.476Z,11.57
2018-07-22T05:15:25.897Z,15.83
2018-07-22T05:17:54.342Z,13.87
2018-07-22T05:20:22.790Z,14.00
2018-07-22T05:22:52.090Z,15.27
2018-07-22T05:25:20.526Z,15.60
2018-07-22T05:27:48.921Z,16.67
2018-07-22T05:30:17.348Z,17.47
2018-07-22T05:32:45.758Z,18.97
2018-07-22T05:35:14.789Z,18.53
2018-07-22T05:37:43.184Z,20.10
2018-07-22T05:40:11.637Z,19.27
2018-07-22T05:42:40.101Z,21.27
2018-07-22T05:45:08.628Z,21.87
2018-07-22T05:47:36.994Z,22.40
2018-07-22T05:50:05.478Z,22.43
2018-07-22T05:52:34.141Z,22.60
2018-07-22T05:55:02.554Z,23.97
2018-07-22T05:57:31.045Z,24.30
2018-07-22T05:59:59.501Z,23.83
2018-07-22T06:02:27.722Z,23.97
2018-07-22T06:04:56.129Z,26.77
2018-07-22T06:07:24.560Z,24.73
2018-07-22T06:09:52.953Z,26.60
2018-07-22T06:12:21.371Z,25.47
2018-07-22T06:14:49.793Z,26.83
2018-07-22T06:17:18.233Z,26.87
2018-07-22T06:19:46.723Z,27.90
2018-07-22T06:22:15.148Z,27.97
2018-07-22T06:24:43.546Z,29.17
2018-07-22T06:27:11.999Z,29.40
2018-07-22T06:29:40.397Z,29.20
2018-07-22T06:32:08.825Z,28.90
2018-07-22T06:34:37.186Z,30.60
2018-07-22T06:37:05.707Z,30.43
2018-07-22T06:39:34.194Z,28.20
2018-07-22T06:42:02.616Z,31.30
2018-07-22T06:44:31.089Z,24.43
2018-07-22T06:46:59.498Z,31.40
2018-07-22T06:49:27.890Z,30.97
2018-07-22T06:51:56.402Z,27.70
2018-07-22T06:54:24.890Z,29.87
2018-07-22T06:56:53.269Z,33.37
2018-07-22T06:59:21.859Z,28.67
2018-07-22T07:01:51.446Z,33.03
2018-07-22T07:04:19.909Z,30.87
2018-07-22T07:06:48.338Z,30.07
2018-07-22T07:09:16.759Z,21.90
2018-07-22T07:11:45.202Z,28.47
2018-07-22T07:14:13.614Z,29.07
2018-07-22T07:16:42.046Z,31.00
2018-07-22T07:19:10.508Z,31.07
2018-07-22T07:21:39.027Z,25.37
2018-07-22T07:24:07.474Z,24.67
2018-07-22T07:26:35.916Z,22.93
2018-07-22T07:29:04.547Z,25.07
2018-07-22T07:31:33.197Z,22.53
2018-07-22T07:34:01.615Z,23.80
2018-07-22T07:36:30.289Z,25.03
2018-07-22T07:38:58.679Z,23.23
2018-07-22T07:41:27.124Z,23.73
2018-07-22T07:43:55.521Z,21.37
2018-07-22T07:46:23.918Z,22.00
2018-07-22T07:48:52.305Z,23.60
2018-07-22T07:51:20.706Z,27.37
2018-07-22T07:53:49.203Z,22.83
2018-07-22T07:56:17.870Z,24.73
2018-07-22T07:58:46.422Z,24.70
2018-07-22T08:01:14.837Z,22.47
2018-07-22T08:03:43.232Z,23.07
2018-07-22T08:06:11.739Z,23.63
2018-07-22T08:08:40.182Z,23.13
2018-07-22T08:11:08.665Z,23.97
2018-07-22T08:13:37.117Z,21.33
2018-07-22T08:16:05.929Z,22.93
2018-07-22T08:18:34.069Z,25.87
2018-07-22T08:21:02.603Z,23.03
2018-07-22T08:23:31.017Z,21.03
2018-07-22T08:25:59.477Z,23.33
2018-07-22T08:28:38.976Z,25.03
2018-07-22T08:31:07.740Z,22.97
2018-07-22T08:33:36.142Z,21.87
2018-07-22T08:36:05.362Z,20.13
2018-07-22T08:38:33.861Z,19.53
2018-07-22T08:41:02.300Z,18.60
2018-07-22T08:43:31.089Z,16.65
2018-07-22T08:45:59.535Z,16.47
2018-07-22T08:48:27.940Z,17.80
2018-07-22T08:50:56.449Z,13.40
2018-07-22T08:53:24.897Z,16.43
2018-07-22T08:55:53.311Z,12.93
2018-07-22T08:58:21.858Z,13.43
2018-07-22T09:00:50.416Z,16.60
2018-07-22T09:03:18.919Z,15.97
2018-07-22T09:05:47.328Z,15.77
2018-07-22T09:08:15.795Z,11.90
2018-07-22T09:10:43.960Z,16.43
2018-07-22T09:13:12.364Z,12.37
2018-07-22T09:15:40.869Z,13.77
2018-07-22T09:18:09.997Z,14.03
2018-07-22T09:20:38.433Z,11.43
2018-07-22T09:23:06.892Z,14.87
2018-07-22T09:25:35.405Z,13.30
2018-07-22T09:28:10.346Z,9.40
2018-07-22T09:30:38.821Z,11.80
2018-07-22T09:33:07.224Z,9.37
2018-07-22T09:35:35.528Z,13.43
2018-07-22T09:38:03.941Z,14.27
2018-07-22T09:40:32.459Z,12.13
2018-07-22T09:43:01.926Z,13.30
2018-07-22T09:45:30.517Z,11.97
2018-07-22T09:47:59.509Z,9.13
2018-07-22T09:50:28.973Z,10.27
2018-07-22T09:52:58.237Z,12.43
2018-07-22T09:55:26.632Z,11.27
2018-07-22T09:57:55.047Z,10.60
2018-07-22T10:00:28.610Z,7.87
2018-07-22T10:02:57.062Z,12.50
2018-07-22T10:05:25.465Z,10.70
2018-07-22T10:07:53.926Z,9.90
2018-07-22T10:10:23.108Z,9.97
2018-07-22T10:12:51.510Z,10.23
2018-07-22T10:15:19.909Z,11.40
2018-07-22T10:17:48.317Z,11.23
2018-07-22T10:20:16.741Z,10.07
2018-07-22T10:22:45.902Z,9.43
2018-07-22T10:25:14.053Z,12.60
2018-07-22T10:27:42.449Z,7.80
2018-07-22T10:30:10.900Z,11.73
2018-07-22T10:32:39.408Z,10.93
2018-07-22T10:35:07.863Z,11.20
2018-07-22T10:37:36.350Z,12.63
2018-07-22T10:40:04.833Z,10.57
2018-07-22T10:42:33.260Z,10.20
2018-07-22T10:45:01.746Z,9.00
2018-07-22T10:47:30.170Z,8.70
2018-07-22T10:49:58.608Z,10.27
2018-07-22T10:52:27.014Z,9.00
2018-07-22T10:54:55.422Z,9.80
2018-07-22T10:57:23.843Z,8.87
2018-07-22T10:59:52.270Z,11.63
2018-07-22T11:02:20.702Z,11.23
2018-07-22T11:04:49.145Z,8.40
2018-07-22T11:07:17.617Z,11.87
2018-07-22T11:09:46.021Z,10.87
2018-07-22T11:12:14.394Z,6.63
2018-07-22T11:14:42.933Z,9.97
2018-07-22T11:17:11.297Z,9.37
2018-07-22T11:19:39.665Z,13.57
2018-07-22T11:22:08.325Z,8.57
2018-07-22T11:24:36.818Z,7.73
2018-07-22T11:27:05.310Z,9.13
2018-07-22T11:29:33.886Z,8.93
2018-07-22T11:32:02.509Z,8.07
2018-07-22T11:34:31.833Z,10.63
2018-07-22T11:37:00.246Z,5.90
2018-07-22T11:39:29.397Z,6.13
2018-07-22T11:41:57.834Z,8.30
2018-07-22T11:44:26.247Z,7.70
2018-07-22T11:46:54.714Z,10.10
2018-07-22T11:49:23.155Z,7.30
2018-07-22T11:51:52.377Z,8.97
2018-07-22T11:54:20.825Z,7.27
2018-07-22T11:56:49.235Z,9.40
2018-07-22T11:59:17.617Z,10.10
2018-07-22T12:01:46.095Z,7.30
2018-07-22T12:04:14.644Z,8.57
2018-07-22T12:06:43.065Z,8.73
2018-07-22T12:09:12.558Z,7.07
2018-07-22T12:11:41.106Z,7.90
2018-07-22T12:14:09.512Z,10.23
2018-07-22T12:16:37.918Z,8.20
2018-07-22T12:19:06.606Z,7.80
2018-07-22T12:21:35.047Z,8.27
2018-07-22T12:24:03.476Z,7.40
2018-07-22T12:26:31.953Z,7.17
2018-07-22T12:29:00.567Z,7.70
2018-07-22T12:31:28.941Z,6.80
2018-07-22T12:33:57.717Z,9.10
2018-07-22T12:36:26.173Z,6.50
2018-07-22T12:38:54.602Z,7.87
2018-07-22T12:41:23.078Z,7.40
2018-07-22T12:43:51.524Z,6.87
2018-07-22T12:46:19.902Z,10.70
2018-07-22T12:48:48.469Z,9.17
2018-07-22T12:51:17.011Z,7.43
2018-07-22T12:53:45.511Z,9.80
2018-07-22T12:56:13.907Z,8.00
2018-07-22T12:58:42.488Z,6.93
2018-07-22T13:01:10.912Z,6.80
2018-07-22T13:03:39.394Z,6.40
2018-07-22T13:06:07.861Z,6.50
2018-07-22T13:08:36.857Z,7.77
2018-07-22T13:11:06.365Z,6.93
2018-07-22T13:13:35.385Z,6.73
2018-07-22T13:16:03.895Z,10.97
2018-07-22T13:18:32.298Z,8.43
2018-07-22T13:21:00.901Z,8.53
2018-07-22T13:23:29.324Z,9.00
2018-07-22T13:25:57.724Z,6.93
2018-07-22T13:28:26.134Z,9.43
2018-07-22T13:30:54.587Z,8.43
2018-07-22T13:33:22.960Z,10.03
2018-07-22T13:35:51.357Z,7.73
2018-07-22T13:38:19.920Z,6.23
2018-07-22T13:40:48.281Z,8.30
2018-07-22T13:43:16.657Z,7.47
2018-07-22T13:45:45.137Z,10.73
2018-07-22T13:48:13.565Z,6.87
2018-07-22T13:50:42.139Z,8.27
2018-07-22T13:53:10.338Z,5.60
2018-07-22T13:55:38.826Z,7.83
2018-07-22T13:58:07.289Z,5.57
2018-07-22T14:00:35.866Z,7.30
2018-07-22T14:03:04.431Z,8.47
2018-07-22T14:05:32.958Z,6.90
2018-07-22T14:08:01.960Z,9.90
2018-07-22T14:10:30.441Z,7.00
2018-07-22T14:13:01.354Z,7.73
2018-07-22T14:15:31.452Z,6.13
2018-07-22T14:17:59.902Z,7.63
2018-07-22T14:20:30.382Z,6.63
2018-07-22T14:23:05.776Z,6.70
2018-07-22T14:25:34.204Z,8.03
2018-07-22T14:28:02.348Z,11.30
2018-07-22T14:30:30.785Z,6.67
2018-07-22T14:32:59.367Z,7.97
2018-07-22T14:35:27.972Z,6.63
2018-07-22T14:37:56.413Z,8.43
2018-07-22T14:40:24.868Z,7.37
2018-07-22T14:42:53.423Z,7.37
2018-07-22T14:45:21.873Z,9.53
2018-07-22T14:47:50.010Z,8.87
2018-07-22T14:50:18.557Z,8.67
2018-07-22T14:52:47.040Z,6.97
2018-07-22T14:55:15.461Z,7.70
2018-07-22T14:57:43.850Z,7.23
2018-07-22T15:00:12.398Z,6.43
2018-07-22T15:02:40.778Z,8.20
2018-07-22T15:05:09.225Z,7.47
2018-07-22T15:07:37.457Z,6.30
2018-07-22T15:10:05.980Z,6.83
2018-07-22T15:12:34.952Z,7.90
2018-07-22T15:15:03.568Z,7.77
2018-07-22T15:17:32.010Z,38.07
2018-07-22T15:20:00.667Z,19.53
2018-07-22T15:22:29.122Z,9.20
2018-07-22T15:24:57.693Z,22.07
2018-07-22T15:27:26.979Z,59.40
2018-07-22T15:29:55.496Z,62.00
2018-07-22T15:32:23.893Z,27.30
2018-07-22T15:34:52.308Z,14.90
2018-07-22T15:37:20.743Z,27.63
2018-07-22T15:39:49.231Z,45.57
2018-07-22T15:42:17.682Z,9.67
2018-07-22T15:44:46.121Z,35.00
2018-07-22T15:47:14.591Z,28.17
2018-07-22T15:49:42.987Z,12.73
2018-07-22T15:52:11.454Z,23.53
2018-07-22T15:54:39.853Z,9.90
2018-07-22T15:57:08.259Z,10.27
2018-07-22T15:59:36.677Z,13.60
2018-07-22T16:02:05.102Z,9.73
2018-07-22T16:04:33.577Z,21.33
2018-07-22T16:07:02.048Z,7.80
2018-07-22T16:09:30.445Z,7.67
2018-07-22T16:11:58.874Z,8.70
2018-07-22T16:14:27.013Z,11.53
2018-07-22T16:16:55.541Z,11.50
2018-07-22T16:19:23.993Z,9.03
2018-07-22T16:21:52.117Z,5.03
2018-07-22T16:24:20.523Z,5.97
2018-07-22T16:26:49.004Z,10.47
2018-07-22T16:29:17.482Z,12.80
2018-07-22T16:31:45.889Z,13.80
2018-07-22T16:34:14.166Z,7.87
2018-07-22T16:36:42.630Z,9.80
2018-07-22T16:39:11.054Z,7.97
2018-07-22T16:41:39.908Z,8.77
2018-07-22T16:44:08.342Z,8.33
2018-07-22T16:46:37.309Z,5.60
2018-07-22T16:49:05.681Z,8.23
2018-07-22T16:51:34.333Z,5.63
2018-07-22T16:54:02.794Z,5.50
2018-07-22T16:56:31.214Z,3.80
2018-07-22T16:58:59.618Z,5.73
2018-07-22T17:01:28.040Z,5.07
2018-07-22T17:03:56.509Z,6.33
2018-07-22T17:06:24.905Z,3.57
2018-07-22T17:08:53.330Z,5.67
2018-07-22T17:11:21.729Z,6.70
2018-07-22T17:13:50.121Z,3.57
2018-07-22T17:16:18.591Z,4.27
2018-07-22T17:18:46.719Z,5.23
2018-07-22T17:21:15.213Z,5.57
2018-07-22T17:23:43.635Z,3.40
2018-07-22T17:26:12.394Z,5.47
2018-07-22T17:28:40.828Z,4.27
2018-07-22T17:31:09.261Z,4.37
2018-07-22T17:33:37.765Z,3.30
2018-07-22T17:36:06.826Z,4.53
2018-07-22T17:38:35.273Z,4.00
2018-07-22T17:41:03.672Z,4.60
2018-07-22T17:43:32.409Z,4.00
2018-07-22T17:46:00.811Z,3.50
2018-07-22T17:48:29.304Z,5.50
2018-07-22T17:50:57.728Z,4.00
2018-07-22T17:53:26.316Z,4.43
2018-07-22T17:55:55.454Z,4.83
2018-07-22T17:58:23.717Z,4.87
2018-07-22T18:00:52.134Z,5.23
2018-07-22T18:03:30.105Z,4.87
2018-07-22T18:05:58.216Z,4.53
2018-07-22T18:08:26.687Z,4.30
2018-07-22T18:10:55.677Z,4.50
2018-07-22T18:13:24.138Z,5.30
2018-07-22T18:15:52.573Z,5.97
2018-07-22T18:18:21.067Z,5.77
2018-07-22T18:20:49.897Z,4.43
2018-07-22T18:23:18.380Z,5.20
2018-07-22T18:25:47.307Z,4.37
2018-07-22T18:28:16.328Z,5.97
2018-07-22T18:30:45.274Z,8.80
2018-07-22T18:33:13.768Z,3.93
2018-07-22T18:35:42.417Z,8.43
2018-07-22T18:38:10.838Z,6.27
2018-07-22T18:40:39.319Z,4.40
2018-07-22T18:43:08.007Z,4.83
2018-07-22T18:45:36.798Z,3.87
2018-07-22T18:48:06.278Z,6.23
2018-07-22T18:50:34.772Z,4.90
2018-07-22T18:53:03.997Z,4.60
2018-07-22T18:55:33.198Z,4.28
2018-07-22T18:58:01.939Z,4.40
2018-07-22T19:00:30.753Z,3.67
2018-07-22T19:02:59.628Z,4.07
2018-07-22T19:05:28.376Z,4.77
2018-07-22T19:07:57.135Z,5.97
2018-07-22T19:10:25.899Z,5.63
2018-07-22T19:12:54.626Z,4.13
2018-07-22T19:15:23.459Z,4.80
2018-07-22T19:17:52.216Z,5.57
2018-07-22T19:20:20.945Z,5.43
2018-07-22T19:22:49.719Z,4.90
2018-07-22T19:25:18.573Z,5.07
2018-07-22T19:27:47.294Z,5.27
2018-07-22T19:30:16.089Z,8.17
2018-07-22T19:32:44.933Z,6.40
2018-07-22T19:35:13.654Z,6.03
2018-07-22T19:37:42.438Z,7.20
2018-07-22T19:40:11.238Z,4.80
2018-07-22T19:42:40.235Z,4.97
2018-07-22T19:45:09.042Z,6.27
2018-07-22T19:47:37.781Z,5.73
2018-07-22T19:50:06.629Z,4.73
2018-07-22T19:52:35.359Z,4.60
2018-07-22T19:55:04.994Z,5.20
2018-07-22T19:57:34.111Z,6.30
2018-07-22T20:00:03.372Z,6.00
2018-07-22T20:02:32.063Z,6.80
2018-07-22T20:05:00.941Z,5.17
2018-07-22T20:07:29.595Z,7.70
2018-07-22T20:09:58.957Z,4.93
2018-07-22T20:12:27.448Z,7.00
2018-07-22T20:14:56.252Z,8.37
2018-07-22T20:17:25.054Z,4.63
2018-07-22T20:19:53.825Z,5.50
2018-07-22T20:22:22.863Z,5.83
2018-07-22T20:24:52.978Z,5.53
2018-07-22T20:27:21.426Z,6.97
2018-07-22T20:29:50.105Z,5.07
2018-07-22T20:32:18.602Z,5.63
2018-07-22T20:34:47.047Z,6.07
2018-07-22T20:37:15.761Z,5.17
2018-07-22T20:39:44.146Z,5.57
2018-07-22T20:42:12.535Z,5.93
2018-07-22T20:44:40.914Z,5.60
2018-07-22T20:47:09.414Z,7.30
2018-07-22T20:49:37.825Z,5.20
2018-07-22T20:52:06.441Z,5.00
2018-07-22T20:54:34.888Z,8.57
2018-07-22T20:57:03.362Z,4.77
2018-07-22T20:59:32.513Z,6.20
2018-07-22T21:02:00.915Z,5.63
2018-07-22T21:04:29.340Z,5.37
2018-07-22T21:06:57.797Z,6.50
2018-07-22T21:09:26.212Z,5.63
2018-07-22T21:13:07.066Z,5.67
2018-07-22T21:15:35.560Z,8.77
2018-07-22T21:18:04.075Z,5.97
2018-07-22T21:20:32.204Z,5.43
2018-07-22T21:23:00.630Z,5.00
2018-07-22T21:25:29.062Z,5.20
2018-07-22T21:27:57.434Z,5.30
2018-07-22T21:30:25.847Z,5.97
2018-07-22T21:32:54.297Z,8.90
2018-07-22T21:35:22.700Z,5.40
2018-07-22T21:37:51.145Z,6.40
2018-07-22T21:40:19.672Z,5.87
2018-07-22T21:42:48.017Z,5.20
2018-07-22T21:45:16.405Z,5.90
2018-07-22T21:47:44.832Z,5.73
2018-07-22T21:50:13.296Z,7.57
2018-07-22T21:52:41.722Z,5.63
2018-07-22T21:55:10.189Z,5.60
2018-07-22T21:57:38.667Z,5.47
2018-07-22T22:00:15.922Z,6.27
2018-07-22T22:02:44.327Z,5.77
2018-07-22T22:05:12.725Z,5.73
2018-07-22T22:07:41.265Z,5.87
2018-07-22T22:10:09.643Z,5.47
2018-07-22T22:12:38.188Z,6.33
2018-07-22T22:15:10.796Z,5.70
2018-07-22T22:17:39.084Z,5.90
2018-07-22T22:20:07.486Z,5.77
2018-07-22T22:22:35.881Z,5.93
2018-07-22T22:25:04.334Z,5.97
2018-07-22T22:27:32.800Z,7.10
2018-07-22T22:30:01.275Z,6.17
2018-07-22T22:32:29.675Z,5.47
2018-07-22T22:34:58.097Z,6.00
2018-07-22T22:37:26.484Z,6.03
2018-07-22T22:39:54.979Z,5.77
2018-07-22T22:42:23.384Z,6.30
2018-07-22T22:44:51.777Z,7.07
2018-07-22T22:47:20.157Z,6.20
2018-07-22T22:49:48.549Z,6.23
2018-07-22T22:52:16.989Z,6.13
2018-07-22T22:54:45.450Z,6.30
2018-07-22T22:57:13.868Z,6.50
2018-07-22T22:59:42.975Z,7.63
2018-07-22T23:02:11.468Z,6.40
2018-07-22T23:04:39.874Z,6.40
2018-07-22T23:07:08.389Z,6.07
2018-07-22T23:09:36.753Z,6.43
2018-07-22T23:12:05.150Z,6.60
2018-07-22T23:14:33.532Z,6.07
2018-07-22T23:17:01.998Z,6.40
2018-07-22T23:19:30.452Z,6.00
2018-07-22T23:21:58.875Z,6.30
2018-07-22T23:24:27.314Z,6.27
2018-07-22T23:26:55.749Z,6.30
2018-07-22T23:29:24.136Z,6.10
2018-07-22T23:31:52.541Z,5.93
2018-07-22T23:34:20.988Z,6.00
2018-07-22T23:36:49.444Z,6.73
2018-07-22T23:39:17.909Z,7.10
2018-07-22T23:41:46.288Z,6.70
2018-07-22T23:44:14.736Z,6.20
2018-07-22T23:46:43.148Z,6.83
2018-07-22T23:49:11.563Z,6.70
2018-07-22T23:51:39.957Z,6.97
2018-07-22T23:54:08.484Z,7.27
2018-07-22T23:56:37.010Z,6.77
2018-07-22T23:59:05.401Z,7.20
